Time;durP1;ratioP1;P1;durP2;ratioP2;P2;SDS_P1;SDS_P2;PMS_P1;PMS_P2;Temp;Humidity;BMP_temperature;BMP_pressure;BME280_temperature;BME280_humidity;BME280_pressure;Samples;Min_cycle;Max_cycle;Signal;HPM_P1;HPM_P2
2021/03/29 00:01:56;;;;;;;5.20;0.60;;;9.60;99.90;;;;;;4982971;28;20708;-86
2021/03/29 00:04:23;;;;;;;1.90;1.40;;;9.60;99.90;;;;;;4968551;28;20176;-85
2021/03/29 00:06:49;;;;;;;2.93;1.13;;;9.70;99.90;;;;;;4967670;28;20224;-86
2021/03/29 00:09:17;;;;;;;3.57;0.63;;;9.70;99.90;;;;;;4984540;28;20215;-85
2021/03/29 00:11:44;;;;;;;4.00;0.77;;;9.70;99.90;;;;;;4967551;28;20315;-86
2021/03/29 00:14:12;;;;;;;10.23;1.43;;;9.70;99.90;;;;;;4984566;28;21153;-85
2021/03/29 00:16:39;;;;;;;2.93;0.83;;;9.80;99.90;;;;;;4984182;28;20271;-85
2021/03/29 00:19:09;;;;;;;0.87;0.63;;;9.80;99.90;;;;;;4986837;28;20267;-85
2021/03/29 00:21:38;;;;;;;3.13;0.80;;;9.90;99.90;;;;;;4983836;28;20234;-88
2021/03/29 00:24:05;;;;;;;2.13;1.73;;;9.90;99.90;;;;;;4987580;28;20736;-87
2021/03/29 00:26:32;;;;;;;1.50;1.40;;;9.90;99.90;;;;;;5004681;28;20219;-85
2021/03/29 00:28:57;;;;;;;2.40;1.60;;;9.90;99.90;;;;;;4969520;28;20219;-85
2021/03/29 00:31:24;;;;;;;1.33;1.23;;;10.00;99.90;;;;;;4987351;28;20573;-87
2021/03/29 00:33:52;;;;;;;2.57;1.33;;;10.00;99.90;;;;;;4969115;28;20255;-85
2021/03/29 00:36:23;;;;;;;1.33;0.77;;;10.00;99.90;;;;;;4986173;28;20261;-86
2021/03/29 00:38:50;;;;;;;7.57;1.50;;;10.00;99.90;;;;;;5004259;28;20263;-83
2021/03/29 00:41:17;;;;;;;7.80;2.83;;;10.10;99.90;;;;;;4986367;28;20313;-87
2021/03/29 00:43:45;;;;;;;0.90;0.90;;;10.10;99.90;;;;;;4985873;28;20191;-88
2021/03/29 00:46:12;;;;;;;2.00;0.93;;;10.10;99.90;;;;;;4987267;28;20687;-87
2021/03/29 00:48:39;;;;;;;2.87;1.57;;;10.10;99.90;;;;;;5003775;28;20235;-85
2021/03/29 00:51:13;;;;;;;2.63;1.30;;;10.10;99.90;;;;;;4999792;28;20215;-85
2021/03/29 00:53:43;;;;;;;3.70;1.70;;;10.10;99.90;;;;;;4984646;28;20633;-86
2021/03/29 00:56:09;;;;;;;2.70;1.13;;;10.10;99.90;;;;;;5003457;28;20251;-86
2021/03/29 00:58:36;;;;;;;6.77;1.43;;;10.20;99.90;;;;;;5003588;28;20301;-85
2021/03/29 01:01:09;;;;;;;4.83;1.53;;;10.10;99.90;;;;;;4985115;28;20653;-87
2021/03/29 01:03:38;;;;;;;5.57;1.43;;;10.20;99.90;;;;;;4985591;28;20227;-83
2021/03/29 01:06:12;;;;;;;4.90;1.90;;;10.20;99.90;;;;;;4978905;28;20230;-85
2021/03/29 01:08:41;;;;;;;2.27;1.17;;;10.20;99.90;;;;;;5002997;28;20309;-87
2021/03/29 01:11:10;;;;;;;2.60;1.00;;;10.20;99.90;;;;;;4985240;28;20222;-88
2021/03/29 01:13:43;;;;;;;1.67;1.20;;;10.30;99.90;;;;;;5003468;28;20283;-86
2021/03/29 01:16:12;;;;;;;4.03;1.57;;;10.30;99.90;;;;;;4986189;28;20183;-85
2021/03/29 01:18:42;;;;;;;1.30;0.97;;;10.30;99.90;;;;;;4984947;28;20888;-86
2021/03/29 01:21:39;;;;;;;4.10;1.67;;;10.30;99.90;;;;;;5004405;28;20548;-85
2021/03/29 01:24:15;;;;;;;5.63;0.90;;;10.30;99.90;;;;;;4985976;28;20342;-85
2021/03/29 01:26:41;;;;;;;5.03;1.67;;;10.20;99.90;;;;;;5003653;28;20214;-85
2021/03/29 01:29:08;;;;;;;0.87;0.80;;;10.30;99.90;;;;;;5001699;28;20242;-86
2021/03/29 01:31:36;;;;;;;4.90;1.33;;;10.30;99.90;;;;;;4968849;28;20207;-88
2021/03/29 01:34:03;;;;;;;2.80;1.00;;;10.30;99.90;;;;;;4994359;28;20195;-88
2021/03/29 01:36:30;;;;;;;2.00;1.03;;;10.20;99.90;;;;;;4981574;28;20715;-84
2021/03/29 01:38:58;;;;;;;6.77;1.10;;;10.20;99.90;;;;;;4985883;28;20440;-87
2021/03/29 01:41:25;;;;;;;1.23;1.17;;;10.20;99.90;;;;;;4969294;28;20285;-85
2021/03/29 01:43:52;;;;;;;2.10;1.37;;;10.20;99.90;;;;;;4968057;28;20681;-88
2021/03/29 01:46:19;;;;;;;1.03;0.87;;;10.20;99.90;;;;;;4978489;28;20187;-86
2021/03/29 01:48:45;;;;;;;3.60;1.10;;;10.20;99.90;;;;;;4968297;28;20263;-86
2021/03/29 01:51:14;;;;;;;3.90;0.70;;;10.20;99.90;;;;;;4984745;28;20227;-87
2021/03/29 01:53:41;;;;;;;2.87;1.50;;;10.20;99.90;;;;;;4984629;28;20295;-85
2021/03/29 01:56:07;;;;;;;2.67;1.07;;;10.20;99.90;;;;;;4969212;28;20238;-86
2021/03/29 01:58:33;;;;;;;3.60;1.90;;;10.20;99.90;;;;;;4969272;28;20192;-89
2021/03/29 02:01:03;;;;;;;0.83;0.83;;;10.20;99.90;;;;;;4986817;28;20210;-88
2021/03/29 02:03:30;;;;;;;2.73;0.60;;;10.20;99.90;;;;;;4984969;28;20326;-85
2021/03/29 02:05:57;;;;;;;6.70;1.70;;;10.10;99.90;;;;;;5002825;28;20273;-85
2021/03/29 02:08:24;;;;;;;3.67;1.10;;;10.10;99.90;;;;;;4984540;28;20234;-86
2021/03/29 02:10:51;;;;;;;8.07;1.70;;;10.10;99.90;;;;;;4993710;28;20201;-85
2021/03/29 02:13:19;;;;;;;0.97;0.93;;;10.00;99.90;;;;;;4953818;28;20176;-86
2021/03/29 02:15:48;;;;;;;5.37;1.93;;;10.00;99.90;;;;;;4983873;28;20231;-85
2021/03/29 02:18:20;;;;;;;3.40;2.03;;;10.00;99.90;;;;;;5002227;28;20239;-88
2021/03/29 02:20:48;;;;;;;3.77;1.47;;;9.90;99.90;;;;;;4980265;28;20223;-85
2021/03/29 02:23:18;;;;;;;2.73;1.40;;;9.90;99.90;;;;;;4982874;28;20280;-86
2021/03/29 02:25:46;;;;;;;1.40;0.70;;;9.90;99.90;;;;;;5000344;28;20239;-85
2021/03/29 02:28:12;;;;;;;1.47;1.13;;;9.80;99.90;;;;;;5001091;28;21065;-87
2021/03/29 02:30:40;;;;;;;6.43;2.43;;;9.80;99.90;;;;;;5002080;28;20227;-88
2021/03/29 02:33:10;;;;;;;4.57;1.10;;;9.80;99.90;;;;;;5002273;28;20281;-87
2021/03/29 02:35:36;;;;;;;2.50;1.00;;;9.80;99.90;;;;;;4983976;28;20218;-86
2021/03/29 02:38:07;;;;;;;6.53;1.43;;;9.70;99.90;;;;;;4984496;28;20237;-84
2021/03/29 02:40:33;;;;;;;4.27;2.03;;;9.70;99.90;;;;;;4985695;28;20195;-85
2021/03/29 02:43:01;;;;;;;4.60;1.60;;;9.70;99.90;;;;;;4968307;28;20238;-86
2021/03/29 02:45:44;;;;;;;6.70;1.47;;;9.60;99.90;;;;;;4966819;28;20226;-85
2021/03/29 02:48:14;;;;;;;2.70;1.10;;;9.60;99.90;;;;;;4970480;28;20234;-85
2021/03/29 02:50:43;;;;;;;1.87;1.40;;;9.60;99.90;;;;;;4983863;28;20218;-85
2021/03/29 02:53:17;;;;;;;1.23;0.90;;;9.60;99.90;;;;;;4984427;28;20227;-87
2021/03/29 02:55:44;;;;;;;5.87;1.13;;;9.60;99.90;;;;;;4999924;28;20222;-87
2021/03/29 02:58:13;;;;;;;3.70;1.60;;;9.60;99.90;;;;;;4985123;28;20202;-85
2021/03/29 03:00:39;;;;;;;9.97;2.50;;;9.60;99.90;;;;;;4994289;28;20219;-85
2021/03/29 03:03:06;;;;;;;5.03;1.70;;;9.60;99.90;;;;;;4973933;28;20424;-87
2021/03/29 03:05:36;;;;;;;2.93;1.70;;;9.60;99.90;;;;;;4967587;28;20330;-85
2021/03/29 03:08:05;;;;;;;10.50;1.90;;;9.60;99.90;;;;;;4983237;28;20230;-87
2021/03/29 03:10:33;;;;;;;10.97;1.17;;;9.60;99.90;;;;;;4985066;28;20187;-88
2021/03/29 03:13:01;;;;;;;10.17;2.67;;;9.60;99.90;;;;;;4983930;28;20230;-87
2021/03/29 03:15:28;;;;;;;2.83;1.87;;;9.60;99.90;;;;;;4967617;28;20257;-87
2021/03/29 03:17:57;;;;;;;2.17;1.60;;;9.60;99.90;;;;;;4964875;28;20223;-86
2021/03/29 03:20:23;;;;;;;1.27;1.20;;;9.60;99.90;;;;;;4981937;28;20269;-87
2021/03/29 03:22:53;;;;;;;0.70;0.53;;;9.60;99.90;;;;;;4982279;28;20195;-86
2021/03/29 03:25:28;;;;;;;2.40;2.03;;;9.60;99.90;;;;;;4984745;28;20254;-90
2021/03/29 03:27:56;;;;;;;6.53;1.27;;;9.70;99.90;;;;;;4983234;28;20234;-84
2021/03/29 03:30:26;;;;;;;2.50;1.47;;;9.70;99.90;;;;;;4983452;28;20302;-87
2021/03/29 03:32:52;;;;;;;2.83;0.90;;;9.70;99.90;;;;;;4982667;28;20219;-87
2021/03/29 03:35:21;;;;;;;3.17;1.33;;;9.70;99.90;;;;;;4962263;28;20255;-87
2021/03/29 03:37:51;;;;;;;8.70;1.37;;;9.70;99.90;;;;;;4993146;28;20187;-89
2021/03/29 03:40:19;;;;;;;12.30;2.00;;;9.70;99.90;;;;;;4994571;28;20178;-88
2021/03/29 03:42:47;;;;;;;7.77;1.83;;;9.70;99.90;;;;;;4986515;28;20330;-89
2021/03/29 03:45:13;;;;;;;9.27;2.00;;;9.70;99.90;;;;;;4988148;28;20218;-86
2021/03/29 03:47:41;;;;;;;5.27;1.53;;;9.80;99.90;;;;;;4988615;28;20261;-88
2021/03/29 03:50:10;;;;;;;4.27;2.07;;;9.80;99.90;;;;;;4981502;28;20308;-89
2021/03/29 03:52:39;;;;;;;10.83;2.17;;;9.80;99.90;;;;;;5001824;28;20210;-87
2021/03/29 03:55:06;;;;;;;5.87;2.63;;;9.80;99.90;;;;;;4970829;28;20201;-89
2021/03/29 03:57:34;;;;;;;2.60;1.77;;;9.80;99.90;;;;;;4953062;28;20565;-87
2021/03/29 04:00:00;;;;;;;0.73;0.73;;;9.80;99.90;;;;;;4982982;28;20231;-85
2021/03/29 04:02:26;;;;;;;7.73;2.37;;;9.90;99.90;;;;;;4985339;28;20594;-85
2021/03/29 04:04:52;;;;;;;3.77;2.40;;;9.90;99.90;;;;;;4953587;28;20218;-88
2021/03/29 04:07:17;;;;;;;10.30;3.37;;;9.80;99.90;;;;;;4955417;28;20233;-86
2021/03/29 04:09:55;;;;;;;5.50;1.83;;;9.90;99.90;;;;;;4953969;28;20215;-87
2021/03/29 04:12:20;;;;;;;4.90;1.97;;;9.80;99.90;;;;;;4956513;28;20234;-86
2021/03/29 04:14:46;;;;;;;7.40;2.17;;;9.90;99.90;;;;;;4960758;28;20218;-87
2021/03/29 04:17:12;;;;;;;5.07;2.77;;;9.80;99.90;;;;;;4986803;28;20897;-86
2021/03/29 04:19:37;;;;;;;3.47;1.30;;;9.80;99.90;;;;;;4953597;28;20242;-85
2021/03/29 04:22:04;;;;;;;2.60;1.43;;;9.80;99.90;;;;;;4955108;28;20234;-88
2021/03/29 04:24:30;;;;;;;13.43;2.97;;;9.70;99.90;;;;;;4986156;28;21232;-86
2021/03/29 04:26:56;;;;;;;3.53;1.57;;;9.70;99.90;;;;;;4953056;28;20227;-85
2021/03/29 04:29:21;;;;;;;2.83;2.33;;;9.70;99.90;;;;;;4968629;28;20226;-89
2021/03/29 04:31:47;;;;;;;3.97;1.63;;;9.70;99.90;;;;;;4949676;28;20191;-88
2021/03/29 04:34:13;;;;;;;3.80;1.47;;;9.60;99.90;;;;;;4950404;28;20195;-87
2021/03/29 04:36:39;;;;;;;1.17;0.87;;;9.60;99.90;;;;;;4980577;28;20266;-89
2021/03/29 04:39:05;;;;;;;6.33;2.47;;;9.60;99.90;;;;;;4980716;28;20223;-86
2021/03/29 04:41:31;;;;;;;4.00;1.07;;;9.60;99.90;;;;;;4963828;28;20214;-88
2021/03/29 04:43:56;;;;;;;2.77;0.87;;;9.60;99.90;;;;;;4980993;28;20233;-84
2021/03/29 04:46:22;;;;;;;6.10;2.00;;;9.60;99.90;;;;;;4949862;28;21015;-86
2021/03/29 04:48:48;;;;;;;8.80;2.10;;;9.60;99.90;;;;;;4971761;28;20723;-86
2021/03/29 04:51:14;;;;;;;9.57;4.80;;;9.60;99.90;;;;;;4963852;28;20751;-85
2021/03/29 04:53:40;;;;;;;5.40;1.73;;;9.60;99.90;;;;;;4965428;28;20684;-86
2021/03/29 04:56:06;;;;;;;2.80;2.57;;;9.60;99.90;;;;;;4978397;28;20219;-84
2021/03/29 04:58:32;;;;;;;4.33;2.00;;;9.60;99.90;;;;;;5003586;28;20195;-87
2021/03/29 05:00:58;;;;;;;6.53;2.50;;;9.60;99.90;;;;;;4985532;28;20237;-88
2021/03/29 05:03:23;;;;;;;2.60;1.83;;;9.60;99.90;;;;;;4983709;28;21251;-84
2021/03/29 05:05:49;;;;;;;16.87;3.27;;;9.60;99.90;;;;;;4944112;28;20215;-87
2021/03/29 05:08:15;;;;;;;3.30;1.30;;;9.60;99.90;;;;;;4969157;28;20270;-87
2021/03/29 05:10:41;;;;;;;4.10;1.50;;;9.60;99.90;;;;;;4953026;28;20227;-86
2021/03/29 05:13:07;;;;;;;1.50;1.40;;;9.60;99.90;;;;;;4970846;28;20278;-86
2021/03/29 05:15:33;;;;;;;4.40;1.27;;;9.60;99.90;;;;;;5001245;28;20385;-85
2021/03/29 05:17:59;;;;;;;10.87;2.37;;;9.60;99.90;;;;;;4961047;28;20685;-88
2021/03/29 05:20:25;;;;;;;5.00;1.40;;;9.60;99.90;;;;;;4985977;28;20305;-86
2021/03/29 05:22:51;;;;;;;2.20;1.73;;;9.60;99.90;;;;;;4983654;28;20188;-86
2021/03/29 05:25:17;;;;;;;7.37;2.63;;;9.60;99.90;;;;;;4965430;28;20273;-86
2021/03/29 05:27:43;;;;;;;4.33;1.57;;;9.60;99.90;;;;;;4979442;28;21054;-86
2021/03/29 05:30:09;;;;;;;5.13;1.67;;;9.60;99.90;;;;;;4979172;28;21186;-85
2021/03/29 05:32:36;;;;;;;1.97;0.97;;;9.60;99.90;;;;;;4975955;28;20215;-86
2021/03/29 05:35:02;;;;;;;1.03;1.00;;;9.50;99.90;;;;;;4979495;28;20215;-88
2021/03/29 05:37:29;;;;;;;4.60;2.37;;;9.50;99.90;;;;;;4965057;28;20285;-87
2021/03/29 05:39:57;;;;;;;2.43;1.90;;;9.50;99.90;;;;;;4947825;28;20227;-90
2021/03/29 05:42:25;;;;;;;2.30;1.63;;;9.50;99.90;;;;;;4982036;28;20216;-86
2021/03/29 05:45:05;;;;;;;2.70;1.33;;;9.50;99.90;;;;;;4980957;28;21088;-87
2021/03/29 05:47:31;;;;;;;3.03;2.00;;;9.50;99.90;;;;;;4981018;28;20227;-86
2021/03/29 05:49:59;;;;;;;4.50;2.60;;;9.40;99.90;;;;;;4962971;28;20285;-87
2021/03/29 05:52:26;;;;;;;7.10;3.03;;;9.50;99.90;;;;;;4980362;28;20203;-89
2021/03/29 05:54:53;;;;;;;10.33;2.43;;;9.70;99.90;;;;;;4979477;28;20211;-87
2021/03/29 05:57:20;;;;;;;6.60;1.33;;;10.20;99.90;;;;;;4983065;28;20307;-88
2021/03/29 05:59:45;;;;;;;1.03;0.90;;;10.50;99.90;;;;;;4952254;28;20265;-86
2021/03/29 06:02:30;;;;;;;2.50;1.63;;;11.00;99.90;;;;;;4981432;28;20843;-87
2021/03/29 06:04:56;;;;;;;10.87;3.00;;;11.70;99.90;;;;;;4976854;28;20215;-88
2021/03/29 06:07:29;;;;;;;2.57;1.20;;;12.00;99.90;;;;;;4985953;28;20207;-88
2021/03/29 06:10:06;;;;;;;12.33;2.13;;;12.50;99.90;;;;;;5001755;28;20308;-90
2021/03/29 06:12:46;;;;;;;7.20;3.00;;;12.80;99.90;;;;;;4985606;28;20210;-85
2021/03/29 06:15:13;;;;;;;7.63;2.33;;;11.90;99.90;;;;;;4985647;28;20215;-85
2021/03/29 06:17:39;;;;;;;3.10;1.33;;;11.80;99.90;;;;;;4984654;28;20219;-88
2021/03/29 06:20:06;;;;;;;4.03;1.13;;;12.00;99.90;;;;;;4984256;28;20231;-86
2021/03/29 06:22:40;;;;;;;9.00;1.83;;;11.90;99.90;;;;;;4983782;28;20205;-85
2021/03/29 06:25:22;;;;;;;10.33;3.30;;;12.40;99.90;;;;;;4974543;28;20408;-88
2021/03/29 06:27:55;;;;;;;9.67;2.87;;;12.00;99.90;;;;;;4969308;28;20239;-86
2021/03/29 06:30:35;;;;;;;5.73;1.90;;;12.20;99.90;;;;;;4973287;28;20269;-86
2021/03/29 06:33:17;;;;;;;3.03;2.00;;;12.50;99.90;;;;;;4972850;28;20267;-86
2021/03/29 06:35:49;;;;;;;6.10;1.87;;;12.50;99.90;;;;;;4987154;28;20212;-86
2021/03/29 06:38:27;;;;;;;9.43;1.40;;;12.10;99.90;;;;;;4967604;28;20228;-87
2021/03/29 06:40:58;;;;;;;7.00;1.93;;;12.30;99.90;;;;;;4969626;28;20243;-86
2021/03/29 06:43:37;;;;;;;4.93;1.60;;;12.90;99.90;;;;;;4973838;28;20189;-87
2021/03/29 06:46:08;;;;;;;6.33;1.80;;;13.40;99.90;;;;;;4971160;28;20707;-85
2021/03/29 06:48:36;;;;;;;4.93;1.73;;;15.10;99.90;;;;;;4968692;28;20231;-85
2021/03/29 06:51:23;;;;;;;7.93;1.80;;;14.50;99.90;;;;;;4984775;28;20319;-86
2021/03/29 06:54:08;;;;;;;10.60;2.07;;;15.50;99.90;;;;;;4986972;28;20224;-89
2021/03/29 06:56:35;;;;;;;5.97;2.27;;;15.70;99.90;;;;;;4968306;28;20539;-86
2021/03/29 06:59:04;;;;;;;5.77;2.03;;;15.20;99.90;;;;;;4968041;28;20232;-85
2021/03/29 07:01:31;;;;;;;12.17;1.60;;;15.40;99.90;;;;;;4964089;28;20204;-85
2021/03/29 07:03:57;;;;;;;5.33;1.90;;;15.50;99.90;;;;;;4950954;28;20235;-86
2021/03/29 07:06:28;;;;;;;10.50;2.40;;;15.70;99.90;;;;;;4968467;28;20599;-87
2021/03/29 07:09:06;;;;;;;3.67;1.60;;;16.40;99.90;;;;;;4969932;28;20231;-86
2021/03/29 07:11:33;;;;;;;7.53;3.17;;;15.80;99.90;;;;;;4968678;28;20255;-87
2021/03/29 07:13:59;;;;;;;8.70;2.43;;;16.20;99.90;;;;;;4954540;28;20228;-87
2021/03/29 07:16:26;;;;;;;6.03;1.73;;;16.60;99.90;;;;;;4960358;28;20195;-87
2021/03/29 07:18:56;;;;;;;7.60;2.47;;;16.70;99.90;;;;;;4973259;28;20239;-88
2021/03/29 07:21:22;;;;;;;3.47;1.40;;;16.30;99.90;;;;;;4974594;28;20241;-87
2021/03/29 07:23:48;;;;;;;12.13;2.57;;;16.70;99.90;;;;;;4955299;28;21077;-87
2021/03/29 07:26:32;;;;;;;9.03;2.93;;;16.80;99.90;;;;;;4979961;28;20613;-87
2021/03/29 07:29:20;;;;;;;6.73;2.27;;;17.50;99.90;;;;;;4974118;28;20239;-87
2021/03/29 07:31:49;;;;;;;4.00;2.40;;;17.20;99.90;;;;;;4984482;28;20202;-87
2021/03/29 07:34:15;;;;;;;7.23;1.87;;;16.40;99.90;;;;;;4985339;28;20198;-88
2021/03/29 07:36:50;;;;;;;4.90;1.33;;;15.40;99.90;;;;;;4984299;28;20354;-87
2021/03/29 07:39:37;;;;;;;8.73;1.67;;;15.50;99.90;;;;;;4961531;28;20214;-87
2021/03/29 07:42:25;;;;;;;4.33;1.80;;;15.70;99.90;;;;;;4984151;28;20230;-88
2021/03/29 07:44:52;;;;;;;10.47;3.03;;;15.90;99.90;;;;;;4974529;28;20239;-87
2021/03/29 07:47:41;;;;;;;3.23;1.67;;;16.30;99.90;;;;;;4984546;28;20243;-87
2021/03/29 07:50:09;;;;;;;4.07;2.63;;;16.20;99.90;;;;;;4984173;28;20223;-86
2021/03/29 07:52:42;;;;;;;5.33;2.53;;;15.90;99.90;;;;;;4959809;28;20199;-87
2021/03/29 07:55:23;;;;;;;9.67;1.90;;;16.30;99.90;;;;;;4961626;28;21011;-87
2021/03/29 07:57:49;;;;;;;13.43;2.30;;;16.10;99.90;;;;;;4983869;28;20224;-88
2021/03/29 08:00:24;;;;;;;4.83;1.60;;;15.50;99.90;;;;;;4978551;28;20234;-87
2021/03/29 08:02:50;;;;;;;2.93;1.83;;;15.30;99.90;;;;;;4981661;28;20238;-87
2021/03/29 08:05:44;;;;;;;6.00;1.97;;;15.10;99.90;;;;;;4982795;28;20223;-86
2021/03/29 08:08:25;;;;;;;4.27;1.37;;;15.20;99.90;;;;;;4983061;28;20310;-86
2021/03/29 08:11:14;;;;;;;7.53;2.20;;;15.20;99.90;;;;;;4999367;28;20258;-86
2021/03/29 08:14:03;;;;;;;13.53;3.20;;;15.60;99.90;;;;;;4983594;28;20200;-86
2021/03/29 08:16:30;;;;;;;4.00;2.07;;;14.80;99.90;;;;;;4985543;28;20222;-88
2021/03/29 08:19:17;;;;;;;4.93;1.87;;;15.00;99.90;;;;;;4967370;28;20565;-86
2021/03/29 08:21:52;;;;;;;7.53;2.43;;;14.90;99.90;;;;;;4979084;28;20266;-85
2021/03/29 08:24:33;;;;;;;5.50;2.63;;;14.80;99.90;;;;;;4977745;28;20220;-87
2021/03/29 08:27:19;;;;;;;9.17;2.83;;;14.70;99.90;;;;;;4998652;28;20238;-87
2021/03/29 08:29:50;;;;;;;4.97;2.40;;;14.70;99.90;;;;;;4983358;28;20265;-85
2021/03/29 08:32:33;;;;;;;5.23;2.73;;;15.40;99.90;;;;;;4998323;28;20218;-86
2021/03/29 08:34:59;;;;;;;8.03;2.30;;;16.00;99.90;;;;;;4969804;28;20707;-86
2021/03/29 08:37:29;;;;;;;8.60;3.00;;;16.50;99.90;;;;;;4996278;28;20195;-86
2021/03/29 08:39:59;;;;;;;4.23;1.90;;;17.10;99.90;;;;;;5002215;28;21286;-88
2021/03/29 08:42:29;;;;;;;8.13;3.10;;;16.20;99.90;;;;;;5003853;28;20218;-85
2021/03/29 08:44:55;;;;;;;4.10;2.30;;;15.80;99.90;;;;;;4992131;28;20222;-87
2021/03/29 08:47:24;;;;;;;7.27;2.27;;;15.60;99.90;;;;;;5003209;28;20429;-87
2021/03/29 08:49:57;;;;;;;4.67;2.23;;;15.00;99.90;;;;;;4999513;28;20269;-90
2021/03/29 08:52:24;;;;;;;8.27;2.83;;;15.60;99.90;;;;;;4984908;28;20254;-87
2021/03/29 08:54:56;;;;;;;8.87;1.90;;;16.60;99.90;;;;;;4968679;28;20226;-87
2021/03/29 08:57:25;;;;;;;5.07;2.30;;;15.30;99.90;;;;;;5002528;28;20223;-89
2021/03/29 08:59:53;;;;;;;12.57;2.60;;;14.20;99.90;;;;;;4985411;28;20214;-87
2021/03/29 09:02:19;;;;;;;3.33;2.40;;;13.60;99.90;;;;;;4983181;28;20245;-87
2021/03/29 09:04:59;;;;;;;4.77;1.90;;;13.70;99.90;;;;;;4985143;28;20218;-87
2021/03/29 09:07:40;;;;;;;4.07;2.40;;;13.20;99.90;;;;;;4985916;28;20233;-87
2021/03/29 09:10:36;;;;;;;9.43;2.60;;;13.10;99.90;;;;;;4985375;28;20223;-87
2021/03/29 09:13:11;;;;;;;7.30;2.20;;;12.60;99.90;;;;;;4968664;28;20334;-86
2021/03/29 09:15:41;;;;;;;15.90;3.10;;;12.40;99.90;;;;;;4984848;28;20746;-85
2021/03/29 09:18:12;;;;;;;4.30;2.40;;;12.60;99.90;;;;;;4976245;28;20215;-86
2021/03/29 09:20:39;;;;;;;2.27;1.40;;;12.90;99.90;;;;;;4969289;28;20296;-86
2021/03/29 09:23:07;;;;;;;6.83;2.80;;;12.20;99.90;;;;;;4984427;28;20215;-86
2021/03/29 09:25:38;;;;;;;5.20;2.80;;;12.30;99.90;;;;;;4969979;28;20235;-87
2021/03/29 09:31:15;;;;;;;2.80;1.93;;;12.40;99.90;;;;;;5002707;28;20223;-87
2021/03/29 09:33:44;;;;;;;7.20;2.20;;;12.30;99.90;;;;;;4984440;28;20270;-87
2021/03/29 09:36:14;;;;;;;6.30;2.87;;;12.10;99.90;;;;;;4995320;28;20219;-89
2021/03/29 09:38:42;;;;;;;7.97;2.93;;;12.10;99.90;;;;;;5001661;28;20229;-87
2021/03/29 09:41:48;;;;;;;3.07;2.10;;;12.10;99.90;;;;;;4984308;28;20327;-88
2021/03/29 09:44:13;;;;;;;8.70;2.63;;;11.80;99.90;;;;;;4955344;28;20222;-88
2021/03/29 09:46:40;;;;;;;9.70;2.57;;;11.80;99.90;;;;;;4967963;28;20261;-90
2021/03/29 09:49:06;;;;;;;6.80;3.50;;;11.90;99.90;;;;;;4963036;28;20211;-89
2021/03/29 09:51:32;;;;;;;8.87;1.97;;;12.00;99.90;;;;;;4984864;28;20233;-88
2021/03/29 09:53:58;;;;;;;8.90;2.87;;;11.80;99.90;;;;;;5002049;28;20227;-86
2021/03/29 09:56:33;;;;;;;5.97;3.53;;;12.00;99.90;;;;;;4952226;28;20492;-87
2021/03/29 09:58:59;;;;;;;7.67;2.50;;;12.00;99.90;;;;;;4983694;28;20218;-88
2021/03/29 10:01:27;;;;;;;11.20;2.87;;;12.10;99.90;;;;;;4984185;28;20199;-88
2021/03/29 10:03:55;;;;;;;8.90;2.73;;;12.20;99.90;;;;;;5002510;28;20301;-88
2021/03/29 10:06:22;;;;;;;5.20;2.20;;;12.30;99.90;;;;;;4980352;28;20211;-88
2021/03/29 10:09:02;;;;;;;10.43;1.77;;;12.30;99.90;;;;;;5000940;28;20594;-86
2021/03/29 10:11:47;;;;;;;6.73;2.83;;;12.30;99.90;;;;;;4967947;28;20230;-85
2021/03/29 10:14:15;;;;;;;3.83;2.57;;;12.30;99.90;;;;;;4982640;28;20306;-85
2021/03/29 10:16:51;;;;;;;12.23;2.47;;;12.50;99.90;;;;;;4967471;28;21196;-87
2021/03/29 10:19:19;;;;;;;4.47;2.40;;;12.40;99.90;;;;;;4985353;28;20205;-87
2021/03/29 10:22:15;;;;;;;3.23;1.67;;;12.30;99.90;;;;;;4983776;28;20234;-87
2021/03/29 10:25:16;;;;;;;2.17;2.03;;;12.20;99.90;;;;;;4999958;28;21240;-86
2021/03/29 10:27:55;;;;;;;5.40;2.40;;;12.00;99.90;;;;;;5000652;28;20230;-87
2021/03/29 10:30:26;;;;;;;6.13;2.03;;;12.20;99.90;;;;;;4983003;28;20305;-86
2021/03/29 10:32:55;;;;;;;5.67;3.03;;;12.20;99.90;;;;;;4982916;28;20219;-90
2021/03/29 10:35:22;;;;;;;6.17;2.30;;;12.40;99.90;;;;;;5001509;28;20222;-88
2021/03/29 10:37:49;;;;;;;4.70;1.67;;;12.60;99.90;;;;;;4984469;28;20322;-87
2021/03/29 10:40:15;;;;;;;4.80;2.37;;;12.70;99.90;;;;;;4984887;28;20233;-88
2021/03/29 10:42:42;;;;;;;1.60;1.50;;;12.80;99.90;;;;;;4969064;28;20618;-88
2021/03/29 10:45:10;;;;;;;6.30;3.53;;;12.50;99.90;;;;;;4982328;28;20211;-88
2021/03/29 10:47:37;;;;;;;6.23;2.67;;;12.60;99.90;;;;;;4982150;28;20390;-85
2021/03/29 10:50:05;;;;;;;5.17;2.90;;;12.70;99.90;;;;;;4986845;28;20962;-86
2021/03/29 10:52:31;;;;;;;4.70;3.33;;;12.80;99.90;;;;;;5005371;28;20213;-86
2021/03/29 10:54:57;;;;;;;11.27;2.67;;;12.90;99.90;;;;;;4987344;28;20696;-86
2021/03/29 10:57:22;;;;;;;2.43;2.03;;;12.90;99.90;;;;;;4953641;28;21399;-85
2021/03/29 10:59:48;;;;;;;6.73;2.97;;;12.70;99.90;;;;;;4968283;28;20219;-85
2021/03/29 11:02:14;;;;;;;3.00;1.60;;;12.90;99.90;;;;;;4988754;28;20215;-86
2021/03/29 11:04:40;;;;;;;3.90;2.50;;;12.70;99.90;;;;;;4975016;28;20214;-85
2021/03/29 11:07:06;;;;;;;10.73;2.77;;;12.60;99.90;;;;;;4989492;28;20305;-86
2021/03/29 11:09:32;;;;;;;8.30;2.90;;;12.90;99.90;;;;;;4981606;28;20626;-86
2021/03/29 11:11:58;;;;;;;6.53;2.70;;;13.10;99.90;;;;;;5005840;28;21235;-85
2021/03/29 11:14:24;;;;;;;3.20;2.77;;;12.80;99.90;;;;;;4952202;28;20223;-86
2021/03/29 11:16:51;;;;;;;5.67;2.53;;;12.80;99.90;;;;;;4985707;28;20199;-86
2021/03/29 11:19:18;;;;;;;4.13;2.33;;;12.60;99.90;;;;;;4987353;28;20219;-84
2021/03/29 11:21:44;;;;;;;2.40;1.60;;;12.60;99.90;;;;;;5004299;28;20238;-85
2021/03/29 11:24:12;;;;;;;2.23;1.67;;;12.50;99.90;;;;;;4987318;28;20637;-85
2021/03/29 11:26:38;;;;;;;2.87;2.10;;;12.50;99.90;;;;;;4977408;28;20298;-86
2021/03/29 11:29:03;;;;;;;2.30;2.10;;;12.70;99.90;;;;;;4989045;28;20250;-87
2021/03/29 11:31:29;;;;;;;4.60;3.20;;;12.80;99.90;;;;;;4975880;28;20566;-86
2021/03/29 11:33:55;;;;;;;7.40;2.57;;;13.00;99.90;;;;;;4955989;28;20759;-85
2021/03/29 11:36:21;;;;;;;6.70;3.23;;;13.00;99.90;;;;;;4956582;28;20216;-86
2021/03/29 11:38:47;;;;;;;6.63;2.57;;;12.70;99.90;;;;;;4987810;28;20250;-87
2021/03/29 11:41:14;;;;;;;9.40;2.97;;;12.50;99.90;;;;;;4957079;28;20224;-87
2021/03/29 11:43:40;;;;;;;4.57;3.00;;;12.60;99.90;;;;;;4973842;28;20307;-85
2021/03/29 11:46:06;;;;;;;4.60;2.73;;;12.80;99.90;;;;;;4973149;28;20269;-88
2021/03/29 11:48:32;;;;;;;6.70;3.37;;;12.90;99.90;;;;;;4974953;28;20220;-87
2021/03/29 11:50:58;;;;;;;10.03;3.00;;;13.00;99.90;;;;;;4972491;28;20228;-86
2021/03/29 11:53:25;;;;;;;4.70;2.60;;;13.40;99.90;;;;;;4955687;28;20224;-89
2021/03/29 11:55:51;;;;;;;4.63;2.83;;;13.30;99.90;;;;;;4958240;28;20187;-85
2021/03/29 11:58:17;;;;;;;3.47;3.17;;;13.10;99.90;;;;;;4957754;28;20188;-86
2021/03/29 12:03:34;;;;;;;6.33;2.90;;;13.40;99.90;;;;;;4971931;28;21318;-84
2021/03/29 12:06:14;;;;;;;4.57;2.70;;;13.20;99.90;;;;;;4958630;28;20367;-87
2021/03/29 12:13:54;;;;;;;3.43;1.97;;;13.00;99.90;;;;;;4973572;28;20243;-84
2021/03/29 12:16:20;;;;;;;2.70;2.17;;;13.10;99.90;;;;;;4972779;28;20192;-86
2021/03/29 12:18:49;;;;;;;11.27;3.60;;;13.10;99.90;;;;;;4970257;28;20598;-86
2021/03/29 12:21:25;;;;;;;5.23;2.53;;;13.20;99.90;;;;;;4957257;28;20222;-85
2021/03/29 12:23:54;;;;;;;14.43;4.27;;;13.20;99.90;;;;;;4975288;28;20218;-85
2021/03/29 12:26:23;;;;;;;8.57;2.23;;;13.30;99.90;;;;;;4994157;28;20333;-87
2021/03/29 12:28:51;;;;;;;5.73;3.37;;;13.10;99.90;;;;;;4985634;28;20218;-86
2021/03/29 12:31:19;;;;;;;4.10;2.33;;;13.00;99.90;;;;;;4970463;28;20214;-87
2021/03/29 12:33:46;;;;;;;4.27;2.67;;;13.10;99.90;;;;;;4970766;28;20255;-85
2021/03/29 12:36:14;;;;;;;5.07;2.37;;;13.20;99.90;;;;;;4979012;28;20242;-85
2021/03/29 12:38:49;;;;;;;9.63;3.70;;;13.20;99.90;;;;;;4985744;28;20227;-84
2021/03/29 12:41:17;;;;;;;9.73;3.53;;;13.10;99.90;;;;;;5003502;28;20218;-86
2021/03/29 12:43:52;;;;;;;4.53;2.80;;;13.30;99.90;;;;;;4969228;28;20203;-86
2021/03/29 12:46:20;;;;;;;9.90;4.23;;;13.30;99.90;;;;;;4986753;28;20188;-86
2021/03/29 12:48:46;;;;;;;9.53;2.97;;;13.40;99.90;;;;;;4985407;28;20349;-89
2021/03/29 12:51:14;;;;;;;5.73;2.73;;;13.40;99.90;;;;;;4984171;28;20219;-87
2021/03/29 12:53:41;;;;;;;8.17;3.57;;;13.60;99.90;;;;;;4985606;28;20219;-87
2021/03/29 12:56:07;;;;;;;6.07;2.30;;;13.90;99.90;;;;;;4985641;28;20280;-87
2021/03/29 12:58:37;;;;;;;7.60;3.10;;;14.00;99.90;;;;;;4970749;28;20196;-87
2021/03/29 13:01:08;;;;;;;4.80;3.00;;;13.90;99.90;;;;;;4968493;28;20677;-87
2021/03/29 13:03:41;;;;;;;15.50;3.77;;;13.90;99.90;;;;;;4985943;28;20623;-86
2021/03/29 13:06:22;;;;;;;11.93;3.53;;;14.00;99.90;;;;;;4969286;28;20211;-88
2021/03/29 13:08:49;;;;;;;8.63;3.37;;;13.60;99.90;;;;;;4985468;28;20231;-88
2021/03/29 13:11:29;;;;;;;9.87;3.83;;;13.60;99.90;;;;;;4967095;28;20219;-89
2021/03/29 13:14:00;;;;;;;11.43;4.07;;;13.60;99.90;;;;;;4982818;28;20234;-86